createdAt,value
2017-05-16T00:01:38.659Z,3.66
2017-05-16T00:04:07.760Z,3.50
2017-05-16T00:06:37.569Z,3.64
2017-05-16T00:09:07.335Z,3.86
2017-05-16T00:11:36.462Z,2.62
2017-05-16T00:14:06.279Z,3.06
2017-05-16T00:16:35.305Z,4.70
2017-05-16T00:19:04.410Z,3.90
2017-05-16T00:21:33.430Z,2.22
2017-05-16T00:24:02.478Z,4.34
2017-05-16T00:26:31.509Z,3.66
2017-05-16T00:29:00.659Z,6.40
2017-05-16T00:31:30.464Z,3.62
2017-05-16T00:34:00.291Z,5.96
2017-05-16T00:36:29.321Z,2.32
2017-05-16T00:38:58.350Z,3.22
2017-05-16T00:41:27.407Z,2.60
2017-05-16T00:43:56.566Z,3.16
2017-05-16T00:46:25.614Z,3.32
2017-05-16T00:48:54.668Z,4.46
2017-05-16T00:51:23.759Z,2.76
2017-05-16T00:53:52.782Z,3.76
2017-05-16T00:56:21.854Z,5.76
2017-05-16T00:58:50.901Z,2.50
2017-05-16T01:01:19.960Z,2.82
2017-05-16T01:03:49.004Z,3.86
2017-05-16T01:06:18.777Z,3.66
2017-05-16T01:08:47.843Z,4.02
2017-05-16T01:11:16.873Z,5.48
2017-05-16T01:13:45.920Z,4.32
2017-05-16T01:16:14.958Z,4.86
2017-05-16T01:18:44.009Z,4.80
2017-05-16T01:21:13.030Z,4.04
2017-05-16T01:23:42.088Z,3.28
2017-05-16T01:26:11.114Z,2.64
2017-05-16T01:28:40.173Z,4.32
2017-05-16T01:31:09.952Z,2.18
2017-05-16T01:33:39.010Z,3.20
2017-05-16T01:36:08.054Z,2.44
2017-05-16T01:38:37.086Z,4.10
2017-05-16T01:41:06.137Z,2.30
2017-05-16T01:43:35.207Z,2.82
2017-05-16T01:46:04.254Z,3.54
2017-05-16T01:48:33.290Z,2.32
2017-05-16T01:51:02.353Z,3.34
2017-05-16T01:53:31.378Z,2.10
2017-05-16T01:56:00.475Z,2.62
2017-05-16T01:58:29.520Z,2.76
2017-05-16T02:00:58.584Z,3.04
2017-05-16T02:03:27.607Z,3.58
2017-05-16T02:05:56.633Z,3.74
2017-05-16T02:08:25.705Z,2.30
2017-05-16T02:10:54.739Z,2.24
2017-05-16T02:13:23.781Z,3.96
2017-05-16T02:15:52.814Z,3.92
2017-05-16T02:18:21.869Z,2.60
2017-05-16T02:20:50.897Z,3.20
2017-05-16T02:23:19.949Z,2.62
2017-05-16T02:25:49.017Z,3.58
2017-05-16T02:28:18.078Z,2.70
2017-05-16T02:30:47.476Z,2.64
2017-05-16T02:33:16.488Z,2.40
2017-05-16T02:35:45.539Z,2.34
2017-05-16T02:38:14.617Z,3.04
2017-05-16T02:40:44.406Z,2.52
2017-05-16T02:43:13.433Z,3.44
2017-05-16T02:45:42.494Z,2.72
2017-05-16T02:48:11.521Z,2.56
2017-05-16T02:50:40.581Z,2.60
2017-05-16T02:53:09.689Z,2.92
2017-05-16T02:55:38.768Z,2.54
2017-05-16T02:58:07.877Z,3.10
2017-05-16T03:00:36.905Z,2.70
2017-05-16T03:03:05.962Z,3.20
2017-05-16T03:05:35.002Z,2.94
2017-05-16T03:08:04.085Z,3.12
2017-05-16T03:10:33.143Z,3.02
2017-05-16T03:13:03.209Z,5.48
2017-05-16T03:15:32.246Z,4.34
2017-05-16T03:18:01.350Z,2.90
2017-05-16T03:20:30.395Z,5.84
2017-05-16T03:22:59.434Z,2.70
2017-05-16T03:25:28.493Z,3.14
2017-05-16T03:27:57.643Z,4.56
2017-05-16T03:30:26.725Z,2.50
2017-05-16T03:32:55.766Z,3.58
2017-05-16T03:35:24.917Z,3.06
2017-05-16T03:37:53.950Z,3.92
2017-05-16T03:40:22.999Z,4.62
2017-05-16T03:42:52.021Z,3.38
2017-05-16T03:45:21.074Z,3.86
2017-05-16T03:47:50.109Z,3.00
2017-05-16T03:50:19.168Z,5.02
2017-05-16T03:52:48.207Z,3.72
2017-05-16T03:55:17.226Z,5.20
2017-05-16T03:57:46.309Z,4.42
2017-05-16T04:00:15.330Z,3.76
2017-05-16T04:02:44.395Z,5.58
2017-05-16T04:05:13.434Z,3.60
2017-05-16T04:07:42.490Z,3.88
2017-05-16T04:10:11.521Z,3.66
2017-05-16T04:12:40.585Z,3.72
2017-05-16T04:15:09.642Z,4.06
2017-05-16T04:17:39.410Z,3.54
2017-05-16T04:20:08.474Z,4.48
2017-05-16T04:22:37.506Z,3.86
2017-05-16T04:25:06.553Z,3.74
2017-05-16T04:27:35.587Z,4.20
2017-05-16T04:30:04.647Z,3.52
2017-05-16T04:32:33.659Z,4.56
2017-05-16T04:35:02.759Z,4.04
2017-05-16T04:37:31.805Z,3.28
2017-05-16T04:40:00.844Z,5.00
2017-05-16T04:42:29.982Z,3.80
2017-05-16T04:44:59.749Z,4.72
2017-05-16T04:47:28.788Z,4.22
2017-05-16T04:49:58.599Z,3.94
2017-05-16T04:52:27.641Z,4.20
2017-05-16T04:54:56.665Z,5.90
2017-05-16T04:57:25.713Z,3.32
2017-05-16T04:59:54.738Z,4.92
2017-05-16T05:02:23.851Z,3.26
2017-05-16T05:04:52.892Z,3.34
2017-05-16T05:07:21.943Z,4.10
2017-05-16T05:09:50.985Z,4.62
2017-05-16T05:12:20.018Z,3.84
2017-05-16T05:14:49.065Z,5.58
2017-05-16T05:17:18.087Z,3.50
2017-05-16T05:19:47.142Z,4.46
2017-05-16T05:22:16.175Z,7.06
2017-05-16T05:24:45.317Z,5.90
2017-05-16T05:27:14.330Z,4.42
2017-05-16T05:29:43.369Z,4.08
2017-05-16T05:32:12.501Z,3.76
2017-05-16T05:34:42.722Z,4.36
2017-05-16T05:37:12.500Z,3.94
2017-05-16T05:39:41.523Z,4.04
2017-05-16T05:42:11.313Z,3.68
2017-05-16T05:44:40.353Z,5.10
2017-05-16T05:47:09.445Z,4.30
2017-05-16T05:49:38.482Z,5.74
2017-05-16T05:52:07.557Z,4.90
2017-05-16T05:54:36.633Z,5.58
2017-05-16T05:57:05.669Z,4.18
2017-05-16T05:59:34.714Z,4.32
2017-05-16T06:02:03.754Z,6.54
2017-05-16T06:04:32.795Z,5.46
2017-05-16T06:07:01.825Z,4.32
2017-05-16T06:09:30.897Z,4.10
2017-05-16T06:11:59.933Z,4.38
2017-05-16T06:14:28.978Z,5.40
2017-05-16T06:16:58.019Z,4.56
2017-05-16T06:19:27.057Z,4.38
2017-05-16T06:21:56.161Z,4.96
2017-05-16T06:24:25.232Z,3.78
2017-05-16T06:26:55.006Z,4.98
2017-05-16T06:29:24.065Z,4.44
2017-05-16T06:31:53.101Z,4.22
2017-05-16T06:34:22.151Z,5.92
2017-05-16T06:36:51.188Z,4.40
2017-05-16T06:39:20.261Z,3.50
2017-05-16T06:41:49.294Z,4.62
2017-05-16T06:44:18.330Z,4.10
2017-05-16T06:46:47.398Z,7.74
2017-05-16T06:49:17.206Z,4.76
2017-05-16T06:51:46.249Z,6.50
2017-05-16T06:54:15.316Z,3.76
2017-05-16T06:56:44.394Z,5.06
2017-05-16T06:59:13.416Z,5.94
2017-05-16T07:01:42.474Z,6.02
2017-05-16T07:04:12.250Z,7.72
2017-05-16T07:06:41.292Z,5.60
2017-05-16T07:09:11.052Z,5.76
2017-05-16T07:11:40.128Z,5.36
2017-05-16T07:14:09.153Z,6.04
2017-05-16T07:16:38.205Z,3.48
2017-05-16T07:19:07.258Z,4.64
2017-05-16T07:21:36.287Z,5.70
2017-05-16T07:24:05.338Z,5.26
2017-05-16T07:26:34.528Z,12.00
2017-05-16T07:29:03.615Z,4.28
2017-05-16T07:31:32.638Z,3.46
2017-05-16T07:34:02.421Z,3.22
2017-05-16T07:36:31.453Z,4.22
2017-05-16T07:39:01.364Z,4.00
2017-05-16T07:41:30.512Z,4.08
2017-05-16T07:43:59.629Z,3.52
2017-05-16T07:46:28.851Z,4.14
2017-05-16T07:48:57.873Z,3.34
2017-05-16T07:51:26.927Z,6.72
2017-05-16T07:53:56.718Z,3.70
2017-05-16T07:56:25.778Z,4.94
2017-05-16T07:58:54.792Z,3.52
2017-05-16T08:01:23.852Z,3.36
2017-05-16T08:03:52.902Z,4.52
2017-05-16T08:06:21.957Z,4.70
2017-05-16T08:08:51.007Z,3.74
2017-05-16T08:11:20.054Z,4.02
2017-05-16T08:13:49.103Z,3.38
2017-05-16T08:16:18.916Z,4.24
2017-05-16T08:18:48.697Z,4.06
2017-05-16T08:21:17.742Z,4.58
2017-05-16T08:23:46.789Z,3.76
2017-05-16T08:26:15.830Z,3.52
2017-05-16T08:28:44.881Z,4.40
2017-05-16T08:31:13.913Z,3.90
2017-05-16T08:33:42.980Z,5.18
2017-05-16T08:36:12.036Z,3.14
2017-05-16T08:38:41.097Z,3.02
2017-05-16T08:41:10.137Z,4.02
2017-05-16T08:43:39.221Z,3.20
2017-05-16T08:46:08.242Z,3.62
2017-05-16T08:48:37.307Z,4.02
2017-05-16T08:51:06.338Z,3.08
2017-05-16T08:53:36.136Z,5.10
2017-05-16T08:56:05.193Z,5.28
2017-05-16T08:58:34.248Z,4.76
2017-05-16T09:01:04.065Z,3.62
2017-05-16T09:03:33.903Z,4.92
2017-05-16T09:06:02.924Z,3.94
2017-05-16T09:08:32.077Z,3.16
2017-05-16T09:11:01.129Z,4.60
2017-05-16T09:13:30.178Z,3.70
2017-05-16T09:15:59.245Z,5.00
2017-05-16T09:18:29.017Z,3.46
2017-05-16T09:20:58.073Z,4.38
2017-05-16T09:23:27.113Z,3.08
2017-05-16T09:25:56.166Z,4.38
2017-05-16T09:28:25.218Z,2.88
2017-05-16T09:30:54.299Z,2.74
2017-05-16T09:33:23.334Z,3.00
2017-05-16T09:35:53.135Z,3.30
2017-05-16T09:38:22.944Z,3.08
2017-05-16T09:40:52.046Z,3.40
2017-05-16T09:43:21.794Z,3.46
2017-05-16T09:45:50.951Z,4.60
2017-05-16T09:48:19.963Z,4.38
2017-05-16T09:50:49.254Z,4.14
2017-05-16T09:53:18.321Z,2.68
2017-05-16T09:55:47.438Z,3.78
2017-05-16T09:58:16.457Z,3.66
2017-05-16T10:00:45.497Z,4.74
2017-05-16T10:03:14.529Z,3.14
2017-05-16T10:05:43.585Z,3.46
2017-05-16T10:08:12.699Z,3.42
2017-05-16T10:10:41.734Z,3.52
2017-05-16T10:13:16.422Z,3.20
2017-05-16T10:15:46.207Z,2.96
2017-05-16T10:18:15.333Z,3.08
2017-05-16T10:20:45.142Z,3.54
2017-05-16T10:23:14.917Z,3.56
2017-05-16T10:25:43.962Z,3.70
2017-05-16T10:28:12.989Z,4.06
2017-05-16T10:30:42.038Z,3.88
2017-05-16T10:33:11.848Z,4.30
2017-05-16T10:38:09.893Z,3.98
2017-05-16T10:40:39.113Z,3.58
2017-05-16T10:43:08.171Z,4.72
2017-05-16T10:45:37.220Z,4.64
2017-05-16T10:48:07.029Z,5.90
2017-05-16T10:50:36.797Z,3.58
2017-05-16T10:53:05.842Z,3.76
2017-05-16T10:55:34.869Z,4.22
2017-05-16T10:58:03.993Z,4.28
2017-05-16T11:00:33.026Z,4.16
2017-05-16T11:03:02.086Z,3.26
2017-05-16T11:05:31.113Z,4.26
2017-05-16T11:08:00.155Z,4.12
2017-05-16T11:10:29.201Z,3.88
2017-05-16T11:12:58.285Z,4.18
2017-05-16T11:15:27.318Z,3.92
2017-05-16T11:17:56.349Z,3.98
2017-05-16T11:20:25.403Z,4.64
2017-05-16T11:22:54.428Z,4.28
2017-05-16T11:25:23.482Z,3.78
2017-05-16T11:27:52.514Z,4.54
2017-05-16T11:30:21.574Z,4.90
2017-05-16T11:32:50.602Z,4.62
2017-05-16T11:35:19.673Z,3.42
2017-05-16T11:37:48.810Z,3.82
2017-05-16T11:40:17.821Z,3.02
2017-05-16T11:42:47.609Z,3.60
2017-05-16T11:45:16.637Z,3.70
2017-05-16T11:47:45.689Z,5.66
2017-05-16T11:50:15.020Z,5.24
2017-05-16T11:52:44.148Z,4.30
2017-05-16T11:55:13.178Z,4.16
2017-05-16T11:57:42.278Z,3.76
2017-05-16T12:00:11.309Z,4.50
2017-05-16T12:02:40.362Z,5.40
2017-05-16T12:05:09.395Z,3.80
2017-05-16T12:07:38.466Z,4.14
2017-05-16T12:10:08.273Z,8.92
2017-05-16T12:12:37.465Z,3.64
2017-05-16T12:15:07.282Z,9.20
2017-05-16T12:17:36.309Z,8.08
2017-05-16T12:20:05.356Z,3.92
2017-05-16T12:22:34.419Z,4.08
2017-05-16T12:25:03.537Z,4.02
2017-05-16T12:27:32.576Z,5.10
2017-05-16T12:30:02.406Z,4.58
2017-05-16T12:32:31.424Z,4.98
2017-05-16T12:35:00.490Z,4.84
2017-05-16T12:37:29.532Z,5.44
2017-05-16T12:39:58.665Z,5.20
2017-05-16T12:42:28.440Z,5.50
2017-05-16T12:44:57.569Z,5.56
2017-05-16T12:47:27.351Z,7.28
2017-05-16T12:49:56.444Z,5.58
2017-05-16T12:52:26.247Z,4.90
2017-05-16T12:54:55.338Z,5.32
2017-05-16T12:57:24.407Z,5.28
2017-05-16T12:59:53.574Z,5.50
2017-05-16T13:02:22.583Z,6.10
2017-05-16T13:04:51.633Z,6.16
2017-05-16T13:07:20.683Z,5.28
2017-05-16T13:09:49.725Z,4.74
2017-05-16T13:12:18.779Z,5.54
2017-05-16T13:14:47.853Z,5.18
2017-05-16T13:17:16.885Z,4.68
2017-05-16T13:19:45.942Z,4.38
2017-05-16T13:22:15.009Z,4.42
2017-05-16T13:24:44.802Z,10.12
2017-05-16T13:27:13.838Z,7.06
2017-05-16T13:29:42.978Z,5.28
2017-05-16T13:32:12.008Z,5.66
2017-05-16T13:34:41.798Z,4.32
2017-05-16T13:37:10.846Z,4.46
2017-05-16T13:39:39.884Z,4.26
2017-05-16T13:42:08.963Z,4.86
2017-05-16T13:44:38.004Z,4.54
2017-05-16T13:47:07.878Z,7.30
2017-05-16T13:49:36.892Z,4.54
2017-05-16T13:52:06.686Z,4.60
2017-05-16T13:54:35.777Z,4.34
2017-05-16T13:57:04.844Z,6.88
2017-05-16T13:59:33.877Z,5.46
2017-05-16T14:02:02.950Z,4.40
2017-05-16T14:04:31.965Z,5.00
2017-05-16T14:07:01.008Z,4.22
2017-05-16T14:09:30.131Z,5.12
2017-05-16T14:11:59.187Z,4.20
2017-05-16T14:14:28.263Z,4.20
2017-05-16T14:16:58.059Z,3.90
2017-05-16T14:19:27.080Z,3.90
2017-05-16T14:21:56.914Z,4.84
2017-05-16T14:24:25.990Z,3.82
2017-05-16T14:26:54.993Z,5.02
2017-05-16T14:29:24.029Z,6.72
2017-05-16T14:31:53.081Z,4.48
2017-05-16T14:34:22.109Z,6.82
2017-05-16T14:36:51.169Z,3.54
2017-05-16T14:39:20.198Z,4.62
2017-05-16T14:41:49.308Z,3.88
2017-05-16T14:44:18.336Z,4.28
2017-05-16T14:46:48.124Z,3.88
2017-05-16T14:49:17.176Z,4.40
2017-05-16T14:51:46.229Z,3.62
2017-05-16T14:54:16.139Z,4.44
2017-05-16T14:56:45.221Z,3.72
2017-05-16T14:59:14.272Z,3.56
2017-05-16T15:01:43.323Z,3.44
2017-05-16T15:04:13.128Z,4.00
2017-05-16T15:06:42.885Z,3.60
2017-05-16T15:09:11.951Z,3.42
2017-05-16T15:11:41.003Z,4.62
2017-05-16T15:14:10.049Z,2.94
2017-05-16T15:16:39.119Z,4.16
2017-05-16T15:19:08.152Z,7.38
2017-05-16T15:21:37.175Z,3.26
2017-05-16T15:24:06.228Z,4.00
2017-05-16T15:26:35.258Z,3.70
2017-05-16T15:29:04.325Z,4.38
2017-05-16T15:31:33.353Z,4.46
2017-05-16T15:34:02.410Z,3.84
2017-05-16T15:36:31.448Z,4.40
2017-05-16T15:39:00.504Z,4.72
2017-05-16T15:41:29.544Z,3.80
2017-05-16T15:43:58.591Z,5.88
2017-05-16T15:46:27.632Z,4.34
2017-05-16T15:48:56.673Z,7.04
2017-05-16T15:51:26.028Z,5.52
2017-05-16T15:53:55.080Z,3.90
2017-05-16T15:56:24.102Z,5.34
2017-05-16T15:58:53.163Z,6.50
2017-05-16T16:01:22.185Z,3.26
2017-05-16T16:03:51.249Z,4.18
2017-05-16T16:06:20.282Z,3.96
2017-05-16T16:08:49.347Z,3.62
2017-05-16T16:11:18.390Z,3.22
2017-05-16T16:13:48.302Z,4.62
2017-05-16T16:16:17.349Z,5.02
2017-05-16T16:18:46.690Z,3.30
2017-05-16T16:21:15.755Z,3.70
2017-05-16T16:23:44.782Z,3.28
2017-05-16T16:26:14.570Z,3.64
2017-05-16T16:28:43.807Z,3.90
2017-05-16T16:31:14.384Z,5.26
2017-05-16T16:33:43.501Z,4.82
2017-05-16T16:36:13.342Z,3.84
2017-05-16T16:38:43.208Z,6.82
2017-05-16T16:41:12.387Z,4.40
2017-05-16T16:43:41.700Z,5.14
2017-05-16T16:46:10.942Z,2.92
2017-05-16T16:48:40.761Z,3.30
2017-05-16T16:51:10.571Z,3.82
2017-05-16T16:53:39.689Z,3.50
2017-05-16T16:56:08.850Z,3.60
2017-05-16T16:58:37.894Z,3.16
2017-05-16T17:01:06.951Z,8.34
2017-05-16T17:03:36.739Z,4.64
2017-05-16T17:06:05.862Z,3.24
2017-05-16T17:08:34.932Z,3.30
2017-05-16T17:11:03.963Z,4.08
2017-05-16T17:13:33.005Z,3.62
2017-05-16T17:16:02.074Z,3.42
2017-05-16T17:18:31.092Z,4.50
2017-05-16T17:21:00.140Z,3.76
2017-05-16T17:23:29.172Z,3.88
2017-05-16T17:26:06.018Z,4.54
2017-05-16T17:28:36.128Z,3.78
2017-05-16T17:31:14.263Z,4.24
2017-05-16T17:33:51.053Z,4.14
2017-05-16T17:36:23.829Z,3.26
2017-05-16T17:38:53.515Z,3.38
2017-05-16T17:41:25.017Z,3.44
2017-05-16T17:44:00.700Z,3.68
2017-05-16T17:46:34.247Z,3.94
2017-05-16T17:49:05.265Z,3.36
2017-05-16T17:51:36.587Z,3.50
2017-05-16T17:54:18.161Z,4.26
2017-05-16T17:56:53.799Z,3.32
2017-05-16T17:59:25.968Z,3.26
2017-05-16T18:01:56.985Z,4.62
2017-05-16T18:04:26.050Z,3.58
2017-05-16T18:06:55.114Z,2.90
2017-05-16T18:09:24.884Z,4.30
2017-05-16T18:11:54.732Z,5.44
2017-05-16T18:14:24.902Z,8.38
2017-05-16T18:16:55.095Z,6.26
2017-05-16T18:19:27.099Z,5.00
2017-05-16T18:21:57.203Z,4.22
2017-05-16T18:24:26.571Z,5.08
2017-05-16T18:27:00.269Z,5.70
2017-05-16T18:29:32.152Z,4.66
2017-05-16T18:32:01.222Z,4.72
2017-05-16T18:34:30.303Z,3.54
2017-05-16T18:37:00.120Z,4.64
2017-05-16T18:39:29.922Z,3.90
2017-05-16T18:41:58.951Z,4.46
2017-05-16T18:44:27.982Z,3.70
2017-05-16T18:46:57.065Z,5.50
2017-05-16T18:49:26.196Z,4.86
2017-05-16T18:51:55.238Z,7.32
2017-05-16T18:54:24.311Z,7.34
2017-05-16T18:56:54.134Z,5.40
2017-05-16T18:59:24.755Z,4.58
2017-05-16T19:02:05.974Z,5.38
2017-05-16T19:04:35.607Z,10.54
2017-05-16T19:07:04.635Z,8.44
2017-05-16T19:09:33.773Z,8.42
2017-05-16T19:12:02.947Z,12.18
2017-05-16T19:14:32.338Z,20.76
2017-05-16T19:17:01.364Z,20.72
2017-05-16T19:19:30.467Z,13.80
2017-05-16T19:21:59.508Z,17.38
2017-05-16T19:24:28.562Z,11.94
2017-05-16T19:26:57.594Z,16.78
2017-05-16T19:29:26.780Z,10.82
2017-05-16T19:31:55.842Z,10.86
2017-05-16T19:34:24.894Z,16.68
2017-05-16T19:36:53.918Z,9.24
2017-05-16T19:39:22.962Z,4.98
2017-05-16T19:41:52.722Z,5.90
2017-05-16T19:44:21.771Z,6.60
2017-05-16T19:46:51.536Z,7.28
2017-05-16T19:49:21.424Z,4.68
2017-05-16T19:51:50.451Z,6.22
2017-05-16T19:54:19.495Z,5.80
2017-05-16T19:56:48.569Z,5.00
2017-05-16T19:59:17.633Z,4.78
2017-05-16T20:01:46.662Z,6.54
2017-05-16T20:04:16.739Z,9.96
2017-05-16T20:06:45.802Z,5.12
2017-05-16T20:09:14.865Z,6.92
2017-05-16T20:11:44.625Z,6.34
2017-05-16T20:14:13.724Z,5.86
2017-05-16T20:16:42.754Z,6.62
2017-05-16T20:19:12.566Z,6.56
2017-05-16T20:21:42.380Z,5.76
2017-05-16T20:24:12.165Z,6.18
2017-05-16T20:26:41.212Z,6.04
2017-05-16T20:29:10.239Z,5.60
2017-05-16T20:31:39.302Z,8.14
2017-05-16T20:34:08.325Z,6.16
2017-05-16T20:36:37.455Z,9.36
2017-05-16T20:39:06.480Z,7.88
2017-05-16T20:41:35.566Z,6.60
2017-05-16T20:44:04.603Z,5.72
2017-05-16T20:46:33.643Z,7.52
2017-05-16T20:49:03.409Z,6.56
2017-05-16T20:51:32.474Z,9.74
2017-05-16T20:54:01.510Z,6.00
2017-05-16T20:56:30.585Z,6.02
2017-05-16T20:58:59.637Z,6.40
2017-05-16T21:01:28.694Z,6.26
2017-05-16T21:03:57.718Z,7.62
2017-05-16T21:06:27.526Z,5.84
2017-05-16T21:08:57.293Z,5.68
2017-05-16T21:11:26.360Z,5.96
2017-05-16T21:13:55.404Z,5.92
2017-05-16T21:16:24.445Z,5.88
2017-05-16T21:18:53.490Z,5.10
2017-05-16T21:21:22.537Z,6.10
2017-05-16T21:23:51.575Z,6.36
2017-05-16T21:26:20.617Z,6.98
2017-05-16T21:28:49.648Z,6.78
2017-05-16T21:31:18.709Z,6.16
2017-05-16T21:33:47.752Z,6.68
2017-05-16T21:36:16.789Z,6.68
2017-05-16T21:38:45.848Z,6.02
2017-05-16T21:41:14.873Z,6.00
2017-05-16T21:43:43.938Z,9.28
2017-05-16T21:46:12.977Z,7.50
2017-05-16T21:48:42.039Z,6.20
2017-05-16T21:51:11.805Z,7.08
2017-05-16T21:53:40.846Z,7.64
2017-05-16T21:56:10.613Z,6.96
2017-05-16T21:58:39.665Z,6.74
2017-05-16T22:01:08.696Z,7.16
2017-05-16T22:03:37.741Z,6.88
2017-05-16T22:06:07.508Z,6.52
2017-05-16T22:08:36.553Z,7.26
2017-05-16T22:11:05.603Z,7.64
2017-05-16T22:13:34.632Z,7.68
2017-05-16T22:16:04.406Z,9.42
2017-05-16T22:18:33.467Z,6.88
2017-05-16T22:21:02.498Z,7.16
2017-05-16T22:23:32.336Z,6.66
2017-05-16T22:26:02.103Z,7.32
2017-05-16T22:28:31.141Z,6.28
2017-05-16T22:31:00.928Z,10.06
2017-05-16T22:33:29.995Z,20.76
2017-05-16T22:35:59.152Z,7.58
2017-05-16T22:38:28.921Z,10.56
2017-05-16T22:40:57.960Z,7.86
2017-05-16T22:43:27.737Z,8.64
2017-05-16T22:45:56.781Z,7.94
2017-05-16T22:48:25.833Z,7.58
2017-05-16T22:50:54.866Z,7.76
2017-05-16T22:53:23.895Z,9.44
2017-05-16T22:55:52.951Z,9.22
2017-05-16T22:58:21.984Z,7.62
2017-05-16T23:00:51.018Z,8.68
2017-05-16T23:03:20.785Z,9.54
2017-05-16T23:05:49.833Z,7.84
2017-05-16T23:08:18.866Z,8.06
2017-05-16T23:10:47.906Z,8.08
2017-05-16T23:13:17.683Z,10.02
2017-05-16T23:15:46.897Z,13.10
2017-05-16T23:18:15.910Z,7.46
2017-05-16T23:20:45.854Z,8.12
2017-05-16T23:23:14.881Z,7.66
2017-05-16T23:25:43.983Z,7.92
2017-05-16T23:28:13.141Z,9.06
2017-05-16T23:30:42.243Z,7.44
2017-05-16T23:33:11.255Z,8.58
2017-05-16T23:35:40.379Z,8.50
2017-05-16T23:38:09.421Z,7.92
2017-05-16T23:40:38.476Z,8.06
2017-05-16T23:43:08.245Z,7.82
2017-05-16T23:45:37.301Z,8.02
2017-05-16T23:48:06.326Z,7.62
2017-05-16T23:50:35.386Z,8.10
2017-05-16T23:53:04.430Z,9.28
2017-05-16T23:55:33.482Z,7.94
2017-05-16T23:58:02.514Z,8.30
